createdAt,value
2023-08-11T00:01:06.892Z,11.96
2023-08-11T00:04:11.404Z,11.96
2023-08-11T00:07:14.338Z,11.98
2023-08-11T00:10:17.273Z,12.08
2023-08-11T00:13:20.130Z,12.10
2023-08-11T00:16:22.964Z,12.12
2023-08-11T00:19:27.493Z,12.01
2023-08-11T00:22:30.338Z,11.87
2023-08-11T00:25:33.349Z,11.81
2023-08-11T00:28:36.332Z,11.72
2023-08-11T00:31:39.193Z,11.76
2023-08-11T00:34:43.586Z,11.77
2023-08-11T00:37:46.816Z,11.76
2023-08-11T00:40:49.670Z,11.68
2023-08-11T00:43:52.457Z,11.71
2023-08-11T00:46:55.348Z,11.66
2023-08-11T00:49:59.834Z,11.60
2023-08-11T00:53:03.047Z,11.62
2023-08-11T00:56:06.172Z,11.57
2023-08-11T00:59:11.018Z,11.50
2023-08-11T01:02:14.685Z,11.52
2023-08-11T01:05:20.441Z,11.55
2023-08-11T01:08:27.900Z,11.44
2023-08-11T01:11:39.435Z,11.49
2023-08-11T01:14:49.595Z,11.48
2023-08-11T01:17:52.810Z,11.47
2023-08-11T01:21:01.722Z,11.51
2023-08-11T01:24:06.915Z,11.50
2023-08-11T01:27:09.863Z,11.43
2023-08-11T01:30:13.857Z,11.50
2023-08-11T01:33:16.902Z,11.40
2023-08-11T01:36:19.848Z,11.27
2023-08-11T01:39:24.140Z,11.20
2023-08-11T01:42:27.002Z,11.25
2023-08-11T01:45:30.283Z,11.31
2023-08-11T01:48:33.857Z,11.21
2023-08-11T01:51:36.930Z,11.17
2023-08-11T01:54:43.899Z,11.22
2023-08-11T01:57:57.506Z,11.17
2023-08-11T02:01:01.854Z,10.90
2023-08-11T02:04:05.895Z,10.95
2023-08-11T02:07:09.072Z,10.92
2023-08-11T02:10:14.341Z,10.92
2023-08-11T02:13:17.209Z,10.95
2023-08-11T02:16:20.132Z,10.94
2023-08-11T02:19:23.143Z,10.91
2023-08-11T02:22:26.139Z,10.96
2023-08-11T02:25:30.317Z,10.93
2023-08-11T02:28:34.278Z,10.99
2023-08-11T02:31:37.166Z,11.01
2023-08-11T02:34:41.357Z,10.94
2023-08-11T02:37:44.660Z,10.88
2023-08-11T02:40:48.910Z,10.74
2023-08-11T02:43:51.778Z,10.80
2023-08-11T02:46:54.729Z,10.65
2023-08-11T02:49:57.714Z,10.68
2023-08-11T02:53:00.662Z,10.87
2023-08-11T02:56:08.010Z,10.77
2023-08-11T02:59:11.012Z,10.70
2023-08-11T03:02:16.097Z,10.67
2023-08-11T03:05:20.083Z,10.70
2023-08-11T03:08:23.033Z,10.65
2023-08-11T03:11:27.271Z,10.49
2023-08-11T03:14:30.104Z,10.48
2023-08-11T03:17:33.096Z,10.52
2023-08-11T03:20:36.140Z,10.55
2023-08-11T03:23:38.994Z,10.45
2023-08-11T03:26:43.194Z,10.45
2023-08-11T03:29:46.122Z,10.50
2023-08-11T03:32:49.608Z,10.55
2023-08-11T03:35:52.643Z,10.49
2023-08-11T03:38:58.274Z,10.45
2023-08-11T03:42:03.167Z,10.49
2023-08-11T03:45:06.945Z,10.59
2023-08-11T03:48:09.942Z,10.50
2023-08-11T03:51:12.968Z,10.42
2023-08-11T03:54:15.920Z,10.41
2023-08-11T03:57:20.745Z,10.40
2023-08-11T04:00:24.643Z,10.41
2023-08-11T04:03:29.521Z,10.44
2023-08-11T04:06:34.355Z,10.59
2023-08-11T04:09:41.169Z,10.58
2023-08-11T04:12:45.573Z,10.71
2023-08-11T04:15:51.388Z,10.68
2023-08-11T04:18:55.331Z,10.73
2023-08-11T04:21:58.176Z,10.89
2023-08-11T04:25:01.062Z,10.99
2023-08-11T04:28:05.804Z,10.98
2023-08-11T04:31:10.738Z,10.87
2023-08-11T04:34:15.257Z,10.78
2023-08-11T04:37:20.330Z,10.84
2023-08-11T04:40:27.701Z,10.92
2023-08-11T04:43:32.025Z,10.93
2023-08-11T04:46:35.065Z,10.95
2023-08-11T04:49:38.027Z,11.17
2023-08-11T04:52:40.999Z,11.18
2023-08-11T04:55:43.848Z,11.19
2023-08-11T04:58:48.102Z,11.28
2023-08-11T05:01:51.138Z,11.38
2023-08-11T05:04:54.227Z,11.45
2023-08-11T05:07:57.159Z,11.51
2023-08-11T05:11:00.172Z,11.60
2023-08-11T05:14:04.871Z,11.68
2023-08-11T05:17:08.263Z,11.95
2023-08-11T05:20:12.845Z,12.05
2023-08-11T05:23:15.754Z,12.02
2023-08-11T05:26:18.899Z,11.92
2023-08-11T05:29:27.474Z,12.11
2023-08-11T05:32:31.171Z,12.04
2023-08-11T05:35:34.094Z,12.14
2023-08-11T05:38:39.256Z,12.22
2023-08-11T05:41:43.323Z,12.30
2023-08-11T05:44:52.200Z,12.38
2023-08-11T05:47:55.277Z,12.39
2023-08-11T05:50:58.316Z,12.54
2023-08-11T05:54:10.421Z,12.68
2023-08-11T05:57:13.913Z,12.75
2023-08-11T06:03:51.056Z,12.97
2023-08-11T06:06:57.225Z,13.04
2023-08-11T06:10:04.755Z,13.09
2023-08-11T06:13:08.061Z,13.19
2023-08-11T06:16:17.615Z,13.26
2023-08-11T06:19:24.498Z,13.28
2023-08-11T06:22:33.916Z,13.40
2023-08-11T06:25:39.783Z,13.52
2023-08-11T06:28:52.770Z,13.38
2023-08-11T06:35:46.767Z,13.26
2023-08-11T06:38:49.772Z,13.39
2023-08-11T06:41:52.911Z,13.55
2023-08-11T06:44:55.951Z,13.73
2023-08-11T06:48:06.614Z,13.71
2023-08-11T06:51:12.063Z,13.69
2023-08-11T06:54:18.163Z,13.88
2023-08-11T06:57:25.786Z,13.91
2023-08-11T07:00:28.886Z,13.97
2023-08-11T07:03:40.992Z,14.13
2023-08-11T07:06:46.957Z,14.30
2023-08-11T07:10:10.730Z,14.40
2023-08-11T07:13:24.015Z,14.44
2023-08-11T07:16:41.438Z,14.71
2023-08-11T07:20:13.672Z,14.82
2023-08-11T07:23:19.427Z,14.94
2023-08-11T07:26:47.293Z,15.01
2023-08-11T07:29:58.967Z,15.21
2023-08-11T07:33:23.720Z,15.37
2023-08-11T07:36:34.153Z,15.54
2023-08-11T07:39:41.055Z,15.62
2023-08-11T07:42:44.393Z,15.72
2023-08-11T07:45:54.852Z,15.78
2023-08-11T07:49:03.643Z,15.78
2023-08-11T07:52:08.388Z,15.89
2023-08-11T07:55:31.531Z,15.94
2023-08-11T07:58:49.510Z,15.98
2023-08-11T08:02:00.738Z,16.26
2023-08-11T08:05:13.113Z,16.43
2023-08-11T08:08:22.713Z,16.55
2023-08-11T08:11:27.748Z,16.54
2023-08-11T08:14:35.821Z,16.73
2023-08-11T08:17:57.447Z,16.80
2023-08-11T08:21:05.626Z,16.89
2023-08-11T08:24:18.226Z,17.05
2023-08-11T08:27:25.483Z,17.20
2023-08-11T08:30:28.570Z,17.26
2023-08-11T08:33:31.671Z,17.52
2023-08-11T08:36:34.583Z,17.60
2023-08-11T08:39:38.901Z,17.63
2023-08-11T08:42:42.660Z,17.75
2023-08-11T08:45:46.209Z,17.98
2023-08-11T08:48:53.528Z,18.07
2023-08-11T08:52:00.645Z,18.28
2023-08-11T08:55:07.024Z,18.35
2023-08-11T08:58:12.736Z,18.36
2023-08-11T09:01:16.249Z,18.50
2023-08-11T09:04:21.701Z,18.62
2023-08-11T09:07:25.795Z,18.79
2023-08-11T09:10:30.875Z,18.86
2023-08-11T09:13:33.772Z,18.95
2023-08-11T09:16:37.222Z,19.03
2023-08-11T09:19:40.508Z,19.08
2023-08-11T09:22:43.390Z,19.13
2023-08-11T09:25:50.763Z,19.03
2023-08-11T09:28:54.285Z,19.23
2023-08-11T09:31:57.620Z,19.30
2023-08-11T09:35:03.768Z,19.52
2023-08-11T09:38:06.749Z,19.67
2023-08-11T09:41:11.091Z,19.86
2023-08-11T09:44:16.614Z,19.90
2023-08-11T09:47:23.204Z,19.91
2023-08-11T09:50:28.764Z,20.15
2023-08-11T09:53:31.875Z,20.08
2023-08-11T09:56:38.506Z,20.13
2023-08-11T09:59:42.522Z,20.19
2023-08-11T10:02:48.943Z,20.33
2023-08-11T10:05:53.046Z,20.51
2023-08-11T10:08:56.548Z,20.74
2023-08-11T10:12:01.555Z,20.76
2023-08-11T10:15:04.798Z,20.82
2023-08-11T10:18:08.782Z,20.81
2023-08-11T10:21:11.670Z,20.94
2023-08-11T10:24:15.234Z,20.76
2023-08-11T10:27:19.455Z,20.97
2023-08-11T10:30:22.514Z,20.75
2023-08-11T10:33:25.425Z,20.87
2023-08-11T10:36:29.056Z,20.92
2023-08-11T10:39:31.920Z,21.06
2023-08-11T10:42:37.817Z,21.06
2023-08-11T10:45:42.677Z,21.05
2023-08-11T10:48:45.588Z,21.10
2023-08-11T10:51:51.211Z,21.22
2023-08-11T10:55:00.391Z,21.18
2023-08-11T10:58:15.321Z,21.38
2023-08-11T11:01:18.394Z,21.37
2023-08-11T11:04:22.851Z,21.34
2023-08-11T11:07:26.077Z,21.63
2023-08-11T11:10:43.465Z,21.62
2023-08-11T11:13:52.584Z,21.74
2023-08-11T11:17:00.023Z,21.63
2023-08-11T11:20:03.800Z,21.63
2023-08-11T11:23:07.363Z,21.54
2023-08-11T11:26:10.267Z,21.78
2023-08-11T11:29:14.584Z,21.88
2023-08-11T11:32:19.502Z,21.81
2023-08-11T11:35:25.294Z,21.85
2023-08-11T11:38:28.293Z,21.57
2023-08-11T11:41:31.646Z,21.70
2023-08-11T11:44:39.683Z,21.96
2023-08-11T11:47:42.848Z,21.92
2023-08-11T11:50:46.271Z,21.91
2023-08-11T11:53:56.542Z,21.83
2023-08-11T11:57:04.868Z,21.93
2023-08-11T12:00:17.816Z,21.96
2023-08-11T12:03:20.864Z,21.95
2023-08-11T12:06:23.879Z,22.26
2023-08-11T12:09:26.856Z,22.31
2023-08-11T12:15:59.167Z,22.39
2023-08-11T12:19:02.768Z,22.48
2023-08-11T12:22:06.198Z,22.32
2023-08-11T12:25:13.760Z,22.76
2023-08-11T12:28:17.005Z,22.77
2023-08-11T12:31:35.689Z,22.88
2023-08-11T12:34:40.964Z,22.77
2023-08-11T12:37:52.442Z,23.12
2023-08-11T12:41:06.250Z,23.04
2023-08-11T12:44:09.247Z,22.90
2023-08-11T12:47:20.680Z,22.98
2023-08-11T12:50:29.908Z,23.28
2023-08-11T12:53:38.099Z,23.86
2023-08-11T12:56:43.615Z,23.83
2023-08-11T12:59:49.978Z,23.80
2023-08-11T13:03:11.784Z,23.33
2023-08-11T13:06:22.829Z,23.41
2023-08-11T13:09:28.460Z,23.55
2023-08-11T13:12:38.531Z,23.78
2023-08-11T13:15:51.876Z,23.73
2023-08-11T13:19:36.787Z,24.20
2023-08-11T13:22:40.380Z,24.44
2023-08-11T13:25:43.630Z,23.79
2023-08-11T13:28:49.571Z,23.99
2023-08-11T13:31:52.678Z,24.30
2023-08-11T13:34:57.308Z,24.14
2023-08-11T13:38:00.603Z,24.68
2023-08-11T13:41:03.728Z,25.60
2023-08-11T13:44:07.041Z,25.85
2023-08-11T13:47:14.886Z,25.37
2023-08-11T13:50:19.386Z,25.33
2023-08-11T13:53:23.379Z,25.95
2023-08-11T13:56:26.318Z,24.72
2023-08-11T13:59:29.253Z,25.06
2023-08-11T14:02:32.585Z,25.63
2023-08-11T14:05:36.921Z,25.78
2023-08-11T14:08:44.327Z,26.67
2023-08-11T14:11:49.721Z,26.85
2023-08-11T14:15:04.118Z,23.56
2023-08-11T14:18:22.280Z,24.45
2023-08-11T14:21:37.191Z,25.02
2023-08-11T14:24:59.602Z,25.32
2023-08-11T14:28:09.137Z,25.42
2023-08-11T14:31:28.239Z,24.72
2023-08-11T14:34:31.242Z,25.43
2023-08-11T14:37:36.832Z,26.93
2023-08-11T14:40:39.829Z,26.81
2023-08-11T14:43:45.507Z,27.22
2023-08-11T14:46:50.511Z,28.48
2023-08-11T14:49:53.504Z,26.72
2023-08-11T14:52:57.714Z,26.63
2023-08-11T14:56:00.656Z,26.87
2023-08-11T14:59:03.950Z,27.04
2023-08-11T15:02:07.205Z,27.65
2023-08-11T15:05:11.199Z,27.71
2023-08-11T15:08:15.756Z,27.70
2023-08-11T15:11:20.120Z,28.45
2023-08-11T15:14:23.043Z,28.02
2023-08-11T15:17:26.007Z,28.42
2023-08-11T15:20:30.366Z,28.82
2023-08-11T15:23:36.402Z,28.52
2023-08-11T15:26:40.156Z,28.70
2023-08-11T15:29:46.547Z,29.96
2023-08-11T15:32:49.558Z,31.51
2023-08-11T15:35:52.990Z,33.56
2023-08-11T15:39:00.679Z,34.50
2023-08-11T15:42:03.770Z,34.16
2023-08-11T15:45:08.155Z,32.69
2023-08-11T15:48:11.782Z,31.64
2023-08-11T15:51:14.781Z,32.55
2023-08-11T15:54:22.532Z,34.09
2023-08-11T15:57:25.696Z,33.80
2023-08-11T16:00:36.029Z,31.86
2023-08-11T16:03:39.325Z,31.88
2023-08-11T16:06:42.615Z,32.40
2023-08-11T16:09:49.169Z,31.16
2023-08-11T16:12:52.118Z,31.25
2023-08-11T16:15:55.026Z,32.49
2023-08-11T16:19:13.976Z,33.77
2023-08-11T16:22:38.093Z,34.91
2023-08-11T16:25:42.650Z,32.83
2023-08-11T16:28:57.638Z,28.71
2023-08-11T16:32:20.229Z,30.66
2023-08-11T16:35:55.963Z,33.56
2023-08-11T16:39:09.173Z,33.50
2023-08-11T16:42:19.811Z,35.78
2023-08-11T16:45:40.848Z,35.53
2023-08-11T16:49:01.385Z,34.21
2023-08-11T16:52:20.601Z,32.54
2023-08-11T16:55:57.448Z,32.71
2023-08-11T16:59:32.822Z,32.10
2023-08-11T17:02:45.869Z,31.53
2023-08-11T17:06:08.504Z,33.37
2023-08-11T17:13:00.755Z,33.77
2023-08-11T17:16:16.468Z,33.97
2023-08-11T17:19:46.378Z,32.49
2023-08-11T17:23:17.461Z,31.25
2023-08-11T17:26:40.716Z,30.03
2023-08-11T17:30:03.512Z,30.92
2023-08-11T17:33:31.029Z,31.16
2023-08-11T17:36:52.856Z,31.34
2023-08-11T17:40:49.551Z,30.21
2023-08-11T17:44:22.689Z,30.61
2023-08-11T17:48:11.177Z,29.76
2023-08-11T17:51:42.018Z,29.68
2023-08-11T17:55:13.054Z,29.38
2023-08-11T17:58:40.366Z,28.94
2023-08-11T18:01:46.169Z,28.45
2023-08-11T18:05:44.537Z,28.05
2023-08-11T18:09:05.818Z,27.00
2023-08-11T18:12:39.037Z,26.41
2023-08-11T18:16:07.134Z,25.81
2023-08-11T18:19:20.510Z,24.96
2023-08-11T18:22:26.924Z,24.54
2023-08-11T18:25:46.787Z,24.09
2023-08-11T18:28:54.044Z,23.78
2023-08-11T18:35:32.372Z,23.17
2023-08-11T18:38:35.958Z,22.59
2023-08-11T18:41:51.152Z,22.44
2023-08-11T18:44:55.174Z,22.14
2023-08-11T18:47:58.093Z,22.03
2023-08-11T18:51:01.557Z,21.91
2023-08-11T18:54:08.789Z,21.57
2023-08-11T18:57:26.563Z,21.46
2023-08-11T19:00:33.501Z,21.44
2023-08-11T19:03:58.565Z,21.44
2023-08-11T19:07:18.266Z,21.33
2023-08-11T19:10:28.096Z,21.22
2023-08-11T19:13:41.299Z,21.08
2023-08-11T19:16:56.998Z,20.83
2023-08-11T19:20:17.564Z,20.75
2023-08-11T19:23:28.086Z,20.68
2023-08-11T19:26:38.010Z,20.64
2023-08-11T19:29:50.143Z,20.55
2023-08-11T19:33:04.482Z,20.46
2023-08-11T19:36:17.491Z,20.19
2023-08-11T19:39:28.804Z,20.11
2023-08-11T19:42:48.214Z,20.01
2023-08-11T19:46:00.335Z,19.91
2023-08-11T19:49:15.962Z,19.88
2023-08-11T19:52:25.735Z,19.86
2023-08-11T19:55:37.210Z,19.80
2023-08-11T19:58:48.675Z,19.67
2023-08-11T20:01:54.001Z,19.53
2023-08-11T20:04:58.277Z,19.56
2023-08-11T20:08:04.756Z,19.48
2023-08-11T20:11:29.347Z,19.43
2023-08-11T20:14:43.583Z,19.33
2023-08-11T20:17:52.026Z,19.23
2023-08-11T20:21:15.438Z,19.08
2023-08-11T20:24:18.848Z,19.03
2023-08-11T20:27:33.055Z,19.05
2023-08-11T20:30:40.649Z,19.09
2023-08-11T20:33:51.419Z,19.07
2023-08-11T20:37:11.766Z,18.94
2023-08-11T20:40:20.269Z,18.94
2023-08-11T20:43:26.483Z,18.89
2023-08-11T20:46:34.601Z,18.87
2023-08-11T20:49:39.464Z,18.80
2023-08-11T20:52:47.088Z,18.77
2023-08-11T20:56:03.393Z,18.66
2023-08-11T20:59:12.990Z,18.48
2023-08-11T21:02:25.558Z,18.45
2023-08-11T21:05:29.909Z,18.44
2023-08-11T21:08:33.539Z,18.36
2023-08-11T21:11:41.529Z,18.25
2023-08-11T21:14:52.173Z,18.26
2023-08-11T21:17:57.336Z,18.16
2023-08-11T21:21:10.335Z,18.22
2023-08-11T21:24:20.734Z,18.08
2023-08-11T21:27:34.090Z,18.06
2023-08-11T21:30:37.345Z,17.86
2023-08-11T21:33:49.021Z,17.80
2023-08-11T21:36:56.353Z,17.77
2023-08-11T21:39:59.735Z,17.65
2023-08-11T21:43:05.067Z,17.63
2023-08-11T21:46:10.555Z,17.59
2023-08-11T21:49:18.964Z,17.47
2023-08-11T21:52:34.922Z,17.38
2023-08-11T21:55:51.143Z,17.34
2023-08-11T21:59:01.075Z,17.36
2023-08-11T22:02:10.175Z,17.30
2023-08-11T22:05:29.110Z,17.16
2023-08-11T22:08:35.917Z,17.11
2023-08-11T22:11:44.230Z,17.00
2023-08-11T22:14:49.977Z,17.11
2023-08-11T22:17:54.884Z,17.20
2023-08-11T22:21:05.314Z,17.22
2023-08-11T22:24:17.230Z,17.19
2023-08-11T22:27:27.942Z,17.23
2023-08-11T22:30:34.004Z,17.16
2023-08-11T22:33:36.898Z,17.05
2023-08-11T22:36:39.762Z,16.99
2023-08-11T22:39:44.052Z,16.97
2023-08-11T22:42:46.894Z,16.93
2023-08-11T22:45:49.774Z,16.83
2023-08-11T22:48:52.733Z,16.69
2023-08-11T22:51:55.840Z,16.61
2023-08-11T22:55:00.207Z,16.49
2023-08-11T22:58:03.133Z,16.38
2023-08-11T23:01:06.128Z,16.41
2023-08-11T23:04:09.027Z,16.38
2023-08-11T23:07:12.618Z,16.42
2023-08-11T23:10:17.414Z,16.32
2023-08-11T23:13:20.453Z,16.21
2023-08-11T23:16:23.590Z,16.12
2023-08-11T23:19:26.482Z,15.95
2023-08-11T23:22:29.398Z,15.88
2023-08-11T23:25:34.232Z,15.89
2023-08-11T23:28:37.151Z,15.80
2023-08-11T23:31:43.532Z,15.81
2023-08-11T23:34:46.847Z,15.83
2023-08-11T23:37:49.734Z,15.75
2023-08-11T23:40:55.115Z,15.64
2023-08-11T23:43:58.075Z,15.54
2023-08-11T23:47:00.950Z,15.47
2023-08-11T23:50:04.077Z,15.46
2023-08-11T23:53:06.976Z,15.41
2023-08-11T23:56:11.473Z,15.44
2023-08-11T23:59:14.439Z,15.26
